createdAt,value
2023-05-14T00:00:35.963Z,100015.77
2023-05-14T00:03:03.177Z,100015.48
2023-05-14T00:05:30.062Z,100016.34
2023-05-14T00:07:56.833Z,100016.69
2023-05-14T00:10:23.794Z,100016.78
2023-05-14T00:12:51.132Z,100017.98
2023-05-14T00:15:17.839Z,100018.06
2023-05-14T00:17:44.672Z,100020.63
2023-05-14T00:20:11.907Z,100020.48
2023-05-14T00:22:39.224Z,100022.23
2023-05-14T00:25:06.856Z,100025.40
2023-05-14T00:27:34.733Z,100027.85
2023-05-14T00:30:01.977Z,100027.31
2023-05-14T00:32:29.644Z,100027.61
2023-05-14T00:34:57.079Z,100028.78
2023-05-14T00:37:24.074Z,100029.39
2023-05-14T00:39:50.938Z,100030.01
2023-05-14T00:42:17.722Z,100031.23
2023-05-14T00:44:44.956Z,100029.14
2023-05-14T00:47:11.784Z,100028.23
2023-05-14T00:49:40.361Z,100031.27
2023-05-14T00:52:06.994Z,100031.30
2023-05-14T00:54:34.136Z,100035.23
2023-05-14T00:57:01.162Z,100032.79
2023-05-14T00:59:28.268Z,100033.56
2023-05-14T01:01:55.460Z,100046.15
2023-05-14T01:04:22.188Z,100043.30
2023-05-14T01:06:58.516Z,100042.76
2023-05-14T01:09:40.733Z,100035.91
2023-05-14T01:12:08.137Z,100035.48
2023-05-14T01:15:06.005Z,100038.54
2023-05-14T01:17:33.308Z,100037.52
2023-05-14T01:20:01.430Z,100041.10
2023-05-14T01:22:28.409Z,100038.08
2023-05-14T01:24:56.386Z,100039.70
2023-05-14T01:27:43.559Z,100040.98
2023-05-14T01:30:25.597Z,100035.83
2023-05-14T01:32:54.236Z,100031.02
2023-05-14T01:35:22.441Z,100031.39
2023-05-14T01:37:49.274Z,100029.84
2023-05-14T01:40:16.305Z,100031.83
2023-05-14T01:42:43.414Z,100032.54
2023-05-14T01:45:10.393Z,100035.55
2023-05-14T01:47:37.598Z,100029.45
2023-05-14T01:50:04.850Z,100029.12
2023-05-14T01:52:31.961Z,100022.83
2023-05-14T01:54:59.520Z,100021.70
2023-05-14T01:57:26.477Z,100019.63
2023-05-14T01:59:53.782Z,100025.65
2023-05-14T02:02:20.556Z,100021.65
2023-05-14T02:04:47.313Z,100020.53
2023-05-14T02:07:14.370Z,100018.29
2023-05-14T02:09:41.142Z,100020.61
2023-05-14T02:12:08.609Z,100017.98
2023-05-14T02:14:35.524Z,100012.11
2023-05-14T02:17:03.046Z,100014.19
2023-05-14T02:19:30.169Z,100016.48
2023-05-14T02:21:59.282Z,100012.54
2023-05-14T02:24:26.471Z,100016.27
2023-05-14T02:26:53.200Z,100018.92
2023-05-14T02:29:19.994Z,100014.67
2023-05-14T02:31:46.688Z,100016.13
2023-05-14T02:34:13.524Z,100014.66
2023-05-14T02:36:40.461Z,100009.96
2023-05-14T02:39:07.227Z,100009.08
2023-05-14T02:41:34.093Z,100008.41
2023-05-14T02:44:00.858Z,100011.05
2023-05-14T02:46:27.722Z,100012.89
2023-05-14T02:48:55.155Z,100011.70
2023-05-14T02:51:22.287Z,100012.21
2023-05-14T02:53:49.093Z,100012.71
2023-05-14T02:56:15.951Z,100014.23
2023-05-14T02:58:42.659Z,100015.43
2023-05-14T03:01:09.566Z,100009.41
2023-05-14T03:03:37.717Z,100014.09
2023-05-14T03:06:05.289Z,100017.92
2023-05-14T03:08:32.226Z,100020.33
2023-05-14T03:10:59.169Z,100019.64
2023-05-14T03:13:25.924Z,100026.16
2023-05-14T03:15:54.317Z,100033.89
2023-05-14T03:18:21.332Z,100031.77
2023-05-14T03:20:48.099Z,100028.60
2023-05-14T03:23:15.469Z,100028.48
2023-05-14T03:25:42.572Z,100026.73
2023-05-14T03:28:09.365Z,100027.59
2023-05-14T03:30:36.933Z,100027.13
2023-05-14T03:33:03.839Z,100031.73
2023-05-14T03:35:31.287Z,100027.61
2023-05-14T03:37:58.657Z,100029.51
2023-05-14T03:40:26.400Z,100035.17
2023-05-14T03:42:53.589Z,100038.90
2023-05-14T03:45:20.601Z,100041.47
2023-05-14T03:47:47.515Z,100042.23
2023-05-14T03:50:14.473Z,100047.22
2023-05-14T03:52:42.978Z,100046.74
2023-05-14T03:55:09.867Z,100042.18
2023-05-14T03:57:36.672Z,100042.71
2023-05-14T04:00:04.383Z,100046.05
2023-05-14T04:02:43.882Z,100046.05
2023-05-14T04:05:11.316Z,100048.33
2023-05-14T04:07:40.218Z,100056.75
2023-05-14T04:10:07.995Z,100063.80
2023-05-14T04:12:36.381Z,100061.05
2023-05-14T04:15:04.495Z,100059.54
2023-05-14T04:17:33.908Z,100059.28
2023-05-14T04:20:01.700Z,100056.88
2023-05-14T04:22:28.658Z,100054.70
2023-05-14T04:24:55.346Z,100054.92
2023-05-14T04:27:22.186Z,100053.38
2023-05-14T04:29:49.357Z,100053.90
2023-05-14T04:32:17.002Z,100056.94
2023-05-14T04:34:43.788Z,100057.46
2023-05-14T04:37:10.858Z,100061.77
2023-05-14T04:39:37.769Z,100058.25
2023-05-14T04:42:06.130Z,100064.17
2023-05-14T04:44:34.219Z,100065.55
2023-05-14T04:47:01.631Z,100068.19
2023-05-14T04:49:28.803Z,100069.23
2023-05-14T04:51:55.931Z,100069.48
2023-05-14T04:54:22.811Z,100074.35
2023-05-14T04:56:50.119Z,100080.59
2023-05-14T04:59:16.956Z,100080.54
2023-05-14T05:01:44.626Z,100079.45
2023-05-14T05:04:11.518Z,100077.64
2023-05-14T05:06:38.828Z,100072.07
2023-05-14T05:09:05.570Z,100070.89
2023-05-14T05:11:32.471Z,100067.75
2023-05-14T05:14:01.272Z,100070.05
2023-05-14T05:16:28.343Z,100070.25
2023-05-14T05:18:55.287Z,100076.57
2023-05-14T05:21:22.110Z,100081.23
2023-05-14T05:23:49.046Z,100082.91
2023-05-14T05:26:16.762Z,100083.14
2023-05-14T05:28:43.511Z,100084.86
2023-05-14T05:31:10.339Z,100084.84
2023-05-14T05:33:38.430Z,100086.33
2023-05-14T05:36:05.417Z,100087.78
2023-05-14T05:38:32.242Z,100087.20
2023-05-14T05:40:59.089Z,100086.32
2023-05-14T05:43:28.026Z,100084.11
2023-05-14T05:45:54.921Z,100082.80
2023-05-14T05:48:21.677Z,100086.12
2023-05-14T05:50:49.124Z,100087.05
2023-05-14T05:53:18.507Z,100090.23
2023-05-14T05:55:45.289Z,100091.73
2023-05-14T05:58:15.150Z,100088.69
2023-05-14T06:00:42.027Z,100097.06
2023-05-14T06:03:09.191Z,100101.19
2023-05-14T06:05:36.829Z,100106.33
2023-05-14T06:08:03.922Z,100110.48
2023-05-14T06:10:30.902Z,100112.69
2023-05-14T06:12:57.691Z,100111.13
2023-05-14T06:15:24.426Z,100112.06
2023-05-14T06:17:51.293Z,100111.13
2023-05-14T06:20:18.566Z,100112.69
2023-05-14T06:22:45.364Z,100114.14
2023-05-14T06:25:12.057Z,100114.02
2023-05-14T06:27:39.540Z,100112.73
2023-05-14T06:30:07.421Z,100111.45
2023-05-14T06:32:34.400Z,100112.54
2023-05-14T06:35:01.211Z,100111.86
2023-05-14T06:37:28.112Z,100112.77
2023-05-14T06:39:57.057Z,100111.05
2023-05-14T06:42:25.888Z,100112.13
2023-05-14T06:44:52.631Z,100107.98
2023-05-14T06:47:19.369Z,100111.32
2023-05-14T06:49:46.483Z,100112.00
2023-05-14T06:52:13.259Z,100112.13
2023-05-14T06:54:40.124Z,100111.64
2023-05-14T06:57:07.140Z,100109.92
2023-05-14T06:59:33.893Z,100107.90
2023-05-14T07:02:00.806Z,100106.44
2023-05-14T07:04:27.654Z,100104.64
2023-05-14T07:06:54.489Z,100107.02
2023-05-14T07:09:22.065Z,100107.66
2023-05-14T07:11:48.840Z,100107.04
2023-05-14T07:14:15.913Z,100108.40
2023-05-14T07:16:42.790Z,100103.77
2023-05-14T07:19:09.827Z,100103.98
2023-05-14T07:21:37.548Z,100102.61
2023-05-14T07:24:04.896Z,100100.63
2023-05-14T07:26:31.549Z,100098.33
2023-05-14T07:28:58.453Z,100101.47
2023-05-14T07:31:25.420Z,100105.73
2023-05-14T07:33:52.758Z,100104.02
2023-05-14T07:36:19.461Z,100104.30
2023-05-14T07:38:46.687Z,100096.98
2023-05-14T07:41:13.415Z,100100.61
2023-05-14T07:43:40.646Z,100097.93
2023-05-14T07:46:07.420Z,100099.58
2023-05-14T07:48:34.494Z,100096.69
2023-05-14T07:51:01.271Z,100097.86
2023-05-14T07:53:28.861Z,100097.12
2023-05-14T07:55:55.710Z,100098.52
2023-05-14T07:58:23.101Z,100099.81
2023-05-14T08:00:49.946Z,100102.52
2023-05-14T08:03:17.320Z,100103.36
2023-05-14T08:05:44.940Z,100101.66
2023-05-14T08:08:11.995Z,100099.53
2023-05-14T08:10:39.074Z,100099.44
2023-05-14T08:13:05.953Z,100098.57
2023-05-14T08:15:33.048Z,100083.06
2023-05-14T08:18:03.000Z,100065.79
2023-05-14T08:20:30.525Z,100059.01
2023-05-14T08:22:59.914Z,100056.45
2023-05-14T08:25:26.699Z,100054.09
2023-05-14T08:27:53.707Z,100054.83
2023-05-14T08:30:22.258Z,100048.55
2023-05-14T08:32:49.908Z,100054.47
2023-05-14T08:35:17.486Z,100047.86
2023-05-14T08:37:44.672Z,100044.86
2023-05-14T08:40:11.789Z,100045.55
2023-05-14T08:42:42.548Z,100040.58
2023-05-14T08:45:17.055Z,100040.11
2023-05-14T08:47:49.820Z,100042.02
2023-05-14T08:50:17.095Z,100042.09
2023-05-14T08:52:44.712Z,100042.48
2023-05-14T08:55:12.632Z,100042.61
2023-05-14T08:57:39.612Z,100040.92
2023-05-14T09:00:13.672Z,100034.88
2023-05-14T09:02:41.145Z,100032.29
2023-05-14T09:05:08.816Z,100026.13
2023-05-14T09:07:37.726Z,100017.63
2023-05-14T09:10:08.393Z,100015.28
2023-05-14T09:12:36.177Z,100012.41
2023-05-14T09:15:03.179Z,100009.49
2023-05-14T09:17:32.089Z,100013.66
2023-05-14T09:20:00.008Z,100010.03
2023-05-14T09:22:28.561Z,100008.47
2023-05-14T09:25:10.370Z,100008.70
2023-05-14T09:27:38.738Z,100009.02
2023-05-14T09:30:30.488Z,100012.01
2023-05-14T09:32:57.469Z,100012.75
2023-05-14T09:35:24.549Z,100006.76
2023-05-14T09:37:53.058Z,100005.11
2023-05-14T09:40:21.348Z,100006.15
2023-05-14T09:42:48.738Z,100002.27
2023-05-14T09:45:15.931Z,100000.01
2023-05-14T09:47:44.479Z,99997.24
2023-05-14T09:50:11.692Z,99993.29
2023-05-14T09:52:39.102Z,99992.73
2023-05-14T09:55:07.456Z,99989.30
2023-05-14T09:57:34.954Z,99982.83
2023-05-14T10:00:23.499Z,99985.04
2023-05-14T10:02:52.742Z,99980.16
2023-05-14T10:05:20.878Z,99973.92
2023-05-14T10:07:48.095Z,99970.79
2023-05-14T10:10:16.345Z,99965.02
2023-05-14T10:12:44.902Z,99965.64
2023-05-14T10:15:20.525Z,99969.13
2023-05-14T10:17:49.615Z,99967.00
2023-05-14T10:20:17.167Z,99958.68
2023-05-14T10:22:44.157Z,99953.81
2023-05-14T10:25:11.001Z,99952.92
2023-05-14T10:27:39.434Z,99950.16
2023-05-14T10:30:11.397Z,99948.16
2023-05-14T10:32:38.531Z,99949.33
2023-05-14T10:35:19.908Z,99947.23
2023-05-14T10:37:46.797Z,99949.73
2023-05-14T10:40:13.852Z,99945.54
2023-05-14T10:42:42.799Z,99943.88
2023-05-14T10:45:11.617Z,99941.73
2023-05-14T10:47:39.820Z,99944.02
2023-05-14T10:50:08.482Z,99937.95
2023-05-14T10:52:36.168Z,99941.95
2023-05-14T10:55:09.603Z,99932.65
2023-05-14T10:57:38.704Z,99928.27
2023-05-14T11:00:08.445Z,99933.11
2023-05-14T11:02:37.857Z,99927.73
2023-05-14T11:05:10.003Z,99926.09
2023-05-14T11:07:38.216Z,99925.29
2023-05-14T11:10:09.341Z,99923.92
2023-05-14T11:12:40.602Z,99923.15
2023-05-14T11:15:09.121Z,99919.77
2023-05-14T11:17:36.926Z,99916.02
2023-05-14T11:20:07.431Z,99913.59
2023-05-14T11:22:35.052Z,99921.25
2023-05-14T11:25:02.285Z,99918.04
2023-05-14T11:27:30.315Z,99915.42
2023-05-14T11:29:57.573Z,99921.30
2023-05-14T11:32:24.671Z,99916.91
2023-05-14T11:34:52.051Z,99915.97
2023-05-14T11:37:19.706Z,99917.04
2023-05-14T11:39:52.432Z,99917.77
2023-05-14T11:42:19.762Z,99918.77
2023-05-14T11:44:48.335Z,99918.50
2023-05-14T11:47:16.335Z,99912.70
2023-05-14T11:49:42.959Z,99910.40
2023-05-14T11:52:18.789Z,99902.66
2023-05-14T11:54:45.576Z,99905.11
2023-05-14T11:57:13.708Z,99904.13
2023-05-14T11:59:40.630Z,99902.34
2023-05-14T12:02:14.561Z,99903.33
2023-05-14T12:04:41.508Z,99904.93
2023-05-14T12:07:12.999Z,99898.54
2023-05-14T12:09:44.258Z,99895.89
2023-05-14T12:12:12.829Z,99899.65
2023-05-14T12:14:41.968Z,99898.49
2023-05-14T12:17:16.974Z,99892.42
2023-05-14T12:19:44.956Z,99892.55
2023-05-14T12:22:11.902Z,99885.60
2023-05-14T12:24:38.799Z,99887.27
2023-05-14T12:27:06.772Z,99883.75
2023-05-14T12:29:36.843Z,99878.66
2023-05-14T12:32:08.611Z,99884.98
2023-05-14T12:34:37.513Z,99884.45
2023-05-14T12:37:05.834Z,99882.38
2023-05-14T12:39:33.407Z,99880.97
2023-05-14T12:42:00.234Z,99880.02
2023-05-14T12:44:28.234Z,99877.05
2023-05-14T12:46:55.039Z,99877.63
2023-05-14T12:49:21.877Z,99879.59
2023-05-14T12:51:48.784Z,99876.56
2023-05-14T12:54:16.813Z,99873.13
2023-05-14T12:56:43.654Z,99872.46
2023-05-14T12:59:10.642Z,99868.63
2023-05-14T13:01:37.877Z,99866.39
2023-05-14T13:04:05.152Z,99862.39
2023-05-14T13:06:32.262Z,99865.13
2023-05-14T13:09:01.274Z,99858.65
2023-05-14T13:11:31.284Z,99864.10
2023-05-14T13:13:59.105Z,99862.52
2023-05-14T13:16:26.995Z,99863.14
2023-05-14T13:18:54.761Z,99859.16
2023-05-14T13:21:23.055Z,99857.16
2023-05-14T13:23:51.211Z,99854.35
2023-05-14T13:26:17.879Z,99852.53
2023-05-14T13:28:44.915Z,99853.44
2023-05-14T13:31:12.440Z,99853.98
2023-05-14T13:33:41.049Z,99850.91
2023-05-14T13:36:08.758Z,99845.75
2023-05-14T13:38:35.862Z,99849.85
2023-05-14T13:41:06.135Z,99853.69
2023-05-14T13:43:33.680Z,99856.72
2023-05-14T13:46:01.673Z,99855.10
2023-05-14T13:48:28.727Z,99851.45
2023-05-14T13:50:55.483Z,99850.02
2023-05-14T13:53:22.841Z,99845.27
2023-05-14T13:55:49.921Z,99849.23
2023-05-14T13:58:17.013Z,99847.65
2023-05-14T14:00:44.170Z,99846.16
2023-05-14T14:03:11.119Z,99846.39
2023-05-14T14:05:39.184Z,99846.00
2023-05-14T14:08:22.072Z,99844.86
2023-05-14T14:10:50.059Z,99841.00
2023-05-14T14:13:16.864Z,99838.61
2023-05-14T14:15:43.794Z,99838.59
2023-05-14T14:18:11.446Z,99835.73
2023-05-14T14:20:38.452Z,99832.21
2023-05-14T14:23:05.246Z,99835.68
2023-05-14T14:25:31.961Z,99833.13
2023-05-14T14:27:59.137Z,99828.62
2023-05-14T14:30:25.850Z,99830.58
2023-05-14T14:32:52.903Z,99832.33
2023-05-14T14:35:20.052Z,99832.27
2023-05-14T14:37:51.723Z,99829.48
2023-05-14T14:40:18.833Z,99824.77
2023-05-14T14:42:45.581Z,99827.23
2023-05-14T14:45:12.276Z,99843.63
2023-05-14T14:47:42.607Z,99828.11
2023-05-14T14:50:09.381Z,99828.34
2023-05-14T14:52:36.522Z,99826.95
2023-05-14T14:55:03.574Z,99826.96
2023-05-14T14:57:30.806Z,99824.31
2023-05-14T14:59:59.140Z,99826.59
2023-05-14T15:02:26.735Z,99822.14
2023-05-14T15:04:54.235Z,99817.28
2023-05-14T15:07:22.140Z,99815.09
2023-05-14T15:09:49.564Z,99813.47
2023-05-14T15:12:18.571Z,99811.33
2023-05-14T15:14:45.301Z,99806.02
2023-05-14T15:17:13.215Z,99800.27
2023-05-14T15:19:41.901Z,99799.28
2023-05-14T15:22:08.634Z,99795.88
2023-05-14T15:24:35.446Z,99790.27
2023-05-14T15:27:02.218Z,99787.66
2023-05-14T15:29:30.416Z,99790.59
2023-05-14T15:31:57.328Z,99789.56
2023-05-14T15:34:24.706Z,99785.98
2023-05-14T15:36:51.406Z,99783.83
2023-05-14T15:39:18.105Z,99782.90
2023-05-14T15:41:44.870Z,99780.55
2023-05-14T15:44:12.259Z,99780.11
2023-05-14T15:46:39.688Z,99777.27
2023-05-14T15:49:06.446Z,99777.34
2023-05-14T15:51:33.964Z,99775.79
2023-05-14T15:54:00.660Z,99771.14
2023-05-14T15:56:28.779Z,99771.02
2023-05-14T15:58:55.721Z,99769.87
2023-05-14T16:01:22.563Z,99768.84
2023-05-14T16:03:49.475Z,99767.27
2023-05-14T16:06:16.281Z,99768.90
2023-05-14T16:08:43.204Z,99766.19
2023-05-14T16:11:09.940Z,99767.77
2023-05-14T16:13:39.453Z,99768.09
2023-05-14T16:16:06.443Z,99762.26
2023-05-14T16:18:33.413Z,99763.51
2023-05-14T16:21:01.277Z,99761.98
2023-05-14T16:23:28.034Z,99761.46
2023-05-14T16:25:55.333Z,99763.38
2023-05-14T16:28:22.269Z,99762.52
2023-05-14T16:30:49.021Z,99765.73
2023-05-14T16:33:15.778Z,99765.27
2023-05-14T16:35:42.749Z,99766.64
2023-05-14T16:38:35.527Z,99761.12
2023-05-14T16:41:06.601Z,99762.83
2023-05-14T16:43:33.478Z,99762.50
2023-05-14T16:46:00.247Z,99759.11
2023-05-14T16:48:27.084Z,99762.34
2023-05-14T16:50:55.576Z,99754.03
2023-05-14T16:53:22.505Z,99752.62
2023-05-14T16:55:50.544Z,99746.55
2023-05-14T16:58:17.286Z,99745.41
2023-05-14T17:00:44.015Z,99742.77
2023-05-14T17:03:10.855Z,99742.98
2023-05-14T17:05:37.857Z,99742.25
2023-05-14T17:08:05.402Z,99740.70
2023-05-14T17:10:32.826Z,99738.60
2023-05-14T17:13:00.028Z,99733.04
2023-05-14T17:15:28.550Z,99729.48
2023-05-14T17:17:57.771Z,99729.71
2023-05-14T17:20:24.512Z,99728.14
2023-05-14T17:22:51.271Z,99731.92
2023-05-14T17:25:18.082Z,99727.61
2023-05-14T17:27:45.036Z,99727.94
2023-05-14T17:30:12.653Z,99731.63
2023-05-14T17:32:40.642Z,99732.52
2023-05-14T17:35:09.161Z,99732.73
2023-05-14T17:37:36.536Z,99733.22
2023-05-14T17:40:03.965Z,99732.73
2023-05-14T17:42:31.291Z,99730.56
2023-05-14T17:44:58.440Z,99734.04
2023-05-14T17:47:25.722Z,99735.55
2023-05-14T17:49:53.674Z,99735.59
2023-05-14T17:52:20.845Z,99735.55
2023-05-14T17:54:47.644Z,99736.77
2023-05-14T17:57:14.395Z,99733.45
2023-05-14T17:59:41.182Z,99729.05
2023-05-14T18:02:08.403Z,99733.43
2023-05-14T18:04:35.114Z,99729.80
2023-05-14T18:07:02.616Z,99731.77
2023-05-14T18:09:29.592Z,99734.04
2023-05-14T18:11:57.106Z,99732.02
2023-05-14T18:14:24.214Z,99736.55
2023-05-14T18:16:51.068Z,99736.44
2023-05-14T18:19:18.339Z,99734.63
2023-05-14T18:21:47.477Z,99739.08
2023-05-14T18:24:14.467Z,99743.45
2023-05-14T18:26:41.221Z,99741.33
2023-05-14T18:29:07.970Z,99737.02
2023-05-14T18:31:35.028Z,99735.66
2023-05-14T18:34:02.418Z,99733.88
2023-05-14T18:36:29.570Z,99738.61
2023-05-14T18:38:56.346Z,99739.33
2023-05-14T18:41:23.135Z,99740.06
2023-05-14T18:43:50.620Z,99734.52
2023-05-14T18:46:17.887Z,99740.05
2023-05-14T18:48:45.585Z,99737.46
2023-05-14T18:51:12.446Z,99730.52
2023-05-14T18:53:39.490Z,99727.18
2023-05-14T18:56:06.308Z,99724.58
2023-05-14T18:58:33.397Z,99727.04
2023-05-14T19:01:00.989Z,99726.24
2023-05-14T19:03:27.875Z,99724.96
2023-05-14T19:05:55.145Z,99729.02
2023-05-14T19:08:22.622Z,99734.20
2023-05-14T19:10:50.359Z,99731.23
2023-05-14T19:13:17.724Z,99731.94
2023-05-14T19:15:44.524Z,99733.48
2023-05-14T19:18:12.526Z,99733.86
2023-05-14T19:20:39.693Z,99739.29
2023-05-14T19:23:16.711Z,99739.86
2023-05-14T19:25:46.903Z,99744.33
2023-05-14T19:28:19.207Z,99746.40
2023-05-14T19:30:47.182Z,99748.21
2023-05-14T19:33:16.160Z,99745.75
2023-05-14T19:35:46.714Z,99741.83
2023-05-14T19:38:14.953Z,99739.98
2023-05-14T19:40:43.660Z,99744.43
2023-05-14T19:43:11.990Z,99745.80
2023-05-14T19:45:38.953Z,99742.25
2023-05-14T19:48:06.263Z,99744.73
2023-05-14T19:50:33.891Z,99739.17
2023-05-14T19:53:01.403Z,99738.55
2023-05-14T19:55:28.241Z,99734.68
2023-05-14T19:57:56.225Z,99732.47
2023-05-14T20:00:23.323Z,99735.61
2023-05-14T20:02:51.091Z,99731.92
2023-05-14T20:05:18.011Z,99725.44
2023-05-14T20:07:46.632Z,99727.85
2023-05-14T20:10:13.648Z,99729.83
2023-05-14T20:12:41.053Z,99728.54
2023-05-14T20:15:08.957Z,99731.92
2023-05-14T20:17:37.207Z,99723.34
2023-05-14T20:20:06.179Z,99720.92
2023-05-14T20:22:35.539Z,99715.29
2023-05-14T20:25:03.256Z,99715.13
2023-05-14T20:27:32.147Z,99717.89
2023-05-14T20:29:58.955Z,99713.13
2023-05-14T20:32:26.178Z,99715.52
2023-05-14T20:34:53.199Z,99711.19
2023-05-14T20:37:20.022Z,99713.04
2023-05-14T20:39:46.897Z,99706.46
2023-05-14T20:42:14.395Z,99710.86
2023-05-14T20:44:41.207Z,99709.35
2023-05-14T20:47:10.055Z,99706.16
2023-05-14T20:49:36.957Z,99702.54
2023-05-14T20:52:04.179Z,99706.91
2023-05-14T20:54:31.519Z,99704.36
2023-05-14T20:56:58.331Z,99708.05
2023-05-14T20:59:25.152Z,99699.69
2023-05-14T21:01:52.010Z,99691.66
2023-05-14T21:04:19.110Z,99688.88
2023-05-14T21:06:45.888Z,99684.92
2023-05-14T21:09:12.605Z,99690.20
2023-05-14T21:11:39.758Z,99680.15
2023-05-14T21:14:06.857Z,99681.64
2023-05-14T21:16:33.845Z,99680.42
2023-05-14T21:19:00.868Z,99676.23
2023-05-14T21:21:27.636Z,99678.98
2023-05-14T21:23:54.393Z,99677.14
2023-05-14T21:26:21.781Z,99677.80
2023-05-14T21:28:48.824Z,99668.48
2023-05-14T21:31:15.806Z,99668.45
2023-05-14T21:33:42.790Z,99667.14
2023-05-14T21:36:09.750Z,99666.27
2023-05-14T21:38:37.565Z,99662.11
2023-05-14T21:41:04.266Z,99667.07
2023-05-14T21:43:32.864Z,99658.93
2023-05-14T21:45:59.654Z,99657.66
2023-05-14T21:48:26.588Z,99658.64
2023-05-14T21:50:53.579Z,99658.69
2023-05-14T21:53:20.549Z,99655.59
2023-05-14T21:55:47.521Z,99657.03
2023-05-14T21:58:14.391Z,99656.01
2023-05-14T22:00:41.428Z,99655.38
2023-05-14T22:03:08.338Z,99660.78
2023-05-14T22:05:35.862Z,99657.83
2023-05-14T22:08:02.693Z,99655.04
2023-05-14T22:10:30.055Z,99645.77
2023-05-14T22:12:56.998Z,99640.77
2023-05-14T22:15:23.953Z,99645.00
2023-05-14T22:17:51.053Z,99642.31
2023-05-14T22:20:17.948Z,99644.92
2023-05-14T22:22:44.775Z,99643.77
2023-05-14T22:25:11.598Z,99651.48
2023-05-14T22:27:39.080Z,99650.23
2023-05-14T22:30:06.928Z,99643.38
2023-05-14T22:32:34.170Z,99642.05
2023-05-14T22:35:01.443Z,99641.25
2023-05-14T22:37:28.233Z,99635.75
2023-05-14T22:39:55.089Z,99635.27
2023-05-14T22:42:21.874Z,99640.50
2023-05-14T22:44:48.705Z,99645.89
2023-05-14T22:47:15.975Z,99647.96
2023-05-14T22:49:43.040Z,99650.61
2023-05-14T22:52:11.290Z,99648.12
2023-05-14T22:54:38.070Z,99644.62
2023-05-14T22:57:06.138Z,99640.16
2023-05-14T22:59:33.321Z,99647.68
2023-05-14T23:02:00.270Z,99645.55
2023-05-14T23:04:27.192Z,99650.09
2023-05-14T23:06:53.947Z,99645.02
2023-05-14T23:09:21.508Z,99650.46
2023-05-14T23:11:48.373Z,99652.02
2023-05-14T23:14:17.210Z,99649.98
2023-05-14T23:16:44.105Z,99649.65
2023-05-14T23:19:11.228Z,99651.09
2023-05-14T23:21:38.918Z,99648.48
2023-05-14T23:24:06.464Z,99645.72
2023-05-14T23:26:34.544Z,99642.65
2023-05-14T23:29:01.406Z,99642.47
2023-05-14T23:31:29.994Z,99644.20
2023-05-14T23:33:57.019Z,99642.48
2023-05-14T23:36:23.918Z,99640.89
2023-05-14T23:38:51.010Z,99640.58
2023-05-14T23:41:17.848Z,99645.52
2023-05-14T23:43:46.230Z,99642.02
2023-05-14T23:46:13.109Z,99640.86
2023-05-14T23:48:39.988Z,99638.95
2023-05-14T23:51:06.760Z,99639.23
2023-05-14T23:53:33.568Z,99636.60
2023-05-14T23:56:02.900Z,99634.31
2023-05-14T23:58:30.032Z,99632.96
